Time;durP1;ratioP1;P1;durP2;ratioP2;P2;SDS_P1;SDS_P2;PMS_P1;PMS_P2;Temp;Humidity;BMP_temperature;BMP_pressure;BME280_temperature;BME280_humidity;BME280_pressure;Samples;Min_cycle;Max_cycle;Signal;HPM_P1;HPM_P2
2022/10/25 00:01:01;;;;;;;;;;;;;13.00;97639.00;;;;108902;1269;41913;-56
2022/10/25 00:03:32;;;;;;;;;;;;;13.00;97636.40;;;;108997;1269;41141;-56
2022/10/25 00:06:01;;;;;;;;;;;;;13.00;97634.40;;;;108937;1268;41881;-55
2022/10/25 00:08:31;;;;;;;;;;;;;13.00;97635.00;;;;108990;1269;41203;-56
2022/10/25 00:11:00;;;;;;;;;;;;;13.00;97633.00;;;;108980;1269;42153;-56
2022/10/25 00:13:29;;;;;;;;;;;;;12.90;97633.40;;;;108985;1269;41145;-56
2022/10/25 00:15:59;;;;;;;;;;;;;12.90;97635.80;;;;108978;1269;41926;-56
2022/10/25 00:18:29;;;;;;;;;;;;;12.90;97630.60;;;;108998;1266;42322;-56
2022/10/25 00:21:02;;;;;;;;;;;;;12.90;97634.00;;;;108917;1263;41640;-56
2022/10/25 00:23:31;;;;;;;;;;;;;12.90;97631.60;;;;109012;1269;41158;-55
2022/10/25 00:26:01;;;;;;;;;;;;;12.82;97625.80;;;;109062;1269;41144;-55
2022/10/25 00:28:31;;;;;;;;;;;;;12.82;97622.60;;;;108990;1269;41669;-56
2022/10/25 00:31:06;;;;;;;;;;;;;12.80;97614.80;;;;108974;1269;41247;-56
2022/10/25 00:33:36;;;;;;;;;;;;;12.80;97613.80;;;;108950;1260;41147;-56
2022/10/25 00:36:07;;;;;;;;;;;;;12.80;97615.40;;;;109037;1269;41230;-55
2022/10/25 00:38:37;;;;;;;;;;;;;12.80;97611.80;;;;108996;1269;41164;-56
2022/10/25 00:41:08;;;;;;;;;;;;;12.80;97613.60;;;;109008;1269;41227;-55
2022/10/25 00:43:38;;;;;;;;;;;;;12.80;97616.20;;;;108975;1269;41157;-55
2022/10/25 00:46:28;;;;;;;;;;;;;12.80;97614.20;;;;109033;1269;41603;-56
2022/10/25 00:49:04;;;;;;;;;;;;;12.80;97608.80;;;;109058;1268;41147;-56
2022/10/25 00:51:35;;;;;;;;;;;;;12.72;97605.00;;;;109048;1268;41230;-56
2022/10/25 00:54:05;;;;;;;;;;;;;12.70;97607.80;;;;109038;1268;41638;-56
2022/10/25 00:56:36;;;;;;;;;;;;;12.70;97603.20;;;;109040;1268;41162;-56
2022/10/25 00:59:08;;;;;;;;;;;;;12.70;97600.80;;;;109070;1266;41355;-56
2022/10/25 01:01:38;;;;;;;;;;;;;12.70;97605.20;;;;109073;1267;41608;-56
2022/10/25 01:04:08;;;;;;;;;;;;;12.70;97607.40;;;;108987;1265;41118;-56
2022/10/25 01:06:39;;;;;;;;;;;;;12.64;97606.20;;;;109072;1268;41902;-56
2022/10/25 01:09:08;;;;;;;;;;;;;12.62;97603.40;;;;109058;1264;41827;-56
2022/10/25 01:11:37;;;;;;;;;;;;;12.60;97597.40;;;;109085;1266;41138;-56
2022/10/25 01:14:09;;;;;;;;;;;;;12.70;97596.20;;;;109056;1268;41144;-55
2022/10/25 01:16:44;;;;;;;;;;;;;12.70;97598.20;;;;109055;1268;41135;-56
2022/10/25 01:19:41;;;;;;;;;;;;;12.70;97595.00;;;;109014;1268;41484;-56
2022/10/25 01:22:35;;;;;;;;;;;;;12.70;97594.40;;;;109058;1268;41237;-56
2022/10/25 01:25:17;;;;;;;;;;;;;12.70;97584.60;;;;108973;1269;41972;-56
2022/10/25 01:27:51;;;;;;;;;;;;;12.70;97586.00;;;;109100;1266;41233;-55
2022/10/25 01:30:25;;;;;;;;;;;;;12.70;97590.40;;;;109040;1266;41197;-55
2022/10/25 01:33:08;;;;;;;;;;;;;12.66;97587.40;;;;109027;1268;41456;-55
2022/10/25 01:35:38;;;;;;;;;;;;;12.60;97578.60;;;;109036;1264;41919;-56
2022/10/25 01:38:18;;;;;;;;;;;;;12.60;97575.60;;;;109063;1264;41176;-56
2022/10/25 01:41:00;;;;;;;;;;;;;12.52;97576.40;;;;109036;1268;41618;-56
2022/10/25 01:43:33;;;;;;;;;;;;;12.50;97583.00;;;;109043;1267;41140;-56
2022/10/25 01:46:07;;;;;;;;;;;;;12.40;97585.00;;;;109023;1266;41139;-56
2022/10/25 01:48:45;;;;;;;;;;;;;12.36;97587.00;;;;108967;1268;41144;-56
2022/10/25 01:51:16;;;;;;;;;;;;;12.30;97589.80;;;;108970;1269;41220;-56
2022/10/25 01:53:50;;;;;;;;;;;;;12.30;97589.60;;;;108841;1269;41587;-56
2022/10/25 01:56:23;;;;;;;;;;;;;12.30;97592.40;;;;109004;1269;41699;-55
2022/10/25 01:59:03;;;;;;;;;;;;;12.30;97592.00;;;;108831;1269;41150;-55
2022/10/25 02:01:58;;;;;;;;;;;;;12.30;97579.40;;;;108921;1263;42050;-56
2022/10/25 02:04:37;;;;;;;;;;;;;12.30;97572.60;;;;108979;1269;41246;-55
2022/10/25 02:07:35;;;;;;;;;;;;;12.30;97583.80;;;;108942;1269;41229;-56
2022/10/25 02:10:18;;;;;;;;;;;;;12.32;97581.20;;;;108934;1269;41463;-56
2022/10/25 02:12:51;;;;;;;;;;;;;12.36;97579.20;;;;109060;1268;41266;-56
2022/10/25 02:15:37;;;;;;;;;;;;;12.38;97571.80;;;;108827;1267;41602;-55
2022/10/25 02:18:14;;;;;;;;;;;;;12.40;97561.80;;;;108957;1268;41697;-54
2022/10/25 02:20:45;;;;;;;;;;;;;12.40;97562.60;;;;108788;1269;41179;-54
2022/10/25 02:23:17;;;;;;;;;;;;;12.40;97561.20;;;;108862;1268;41246;-55
2022/10/25 02:25:48;;;;;;;;;;;;;12.40;97565.60;;;;108792;1271;41701;-55
2022/10/25 02:28:20;;;;;;;;;;;;;12.40;97558.80;;;;108987;1269;41147;-56
2022/10/25 02:30:49;;;;;;;;;;;;;12.32;97549.60;;;;108985;1268;41676;-55
2022/10/25 02:33:20;;;;;;;;;;;;;12.30;97551.00;;;;109048;1268;41174;-56
2022/10/25 02:36:11;;;;;;;;;;;;;12.30;97545.80;;;;109103;1268;41982;-56
2022/10/25 02:38:41;;;;;;;;;;;;;12.30;97543.00;;;;109074;1267;41602;-55
2022/10/25 02:41:13;;;;;;;;;;;;;12.30;97545.80;;;;109041;1268;41636;-54
2022/10/25 02:43:43;;;;;;;;;;;;;12.30;97538.40;;;;109016;1268;41164;-57
2022/10/25 02:46:13;;;;;;;;;;;;;12.30;97548.20;;;;109017;1268;41124;-55
2022/10/25 02:48:43;;;;;;;;;;;;;12.30;97551.80;;;;108980;1268;41478;-58
2022/10/25 02:51:13;;;;;;;;;;;;;12.30;97559.00;;;;109074;1266;41378;-54
2022/10/25 02:53:43;;;;;;;;;;;;;12.30;97559.60;;;;109033;1267;41170;-55
2022/10/25 02:56:14;;;;;;;;;;;;;12.30;97560.60;;;;109029;1266;41153;-56
2022/10/25 02:58:44;;;;;;;;;;;;;12.30;97555.00;;;;108995;1266;41170;-56
2022/10/25 03:01:16;;;;;;;;;;;;;12.30;97553.60;;;;109045;1268;41661;-57
2022/10/25 03:03:47;;;;;;;;;;;;;12.30;97551.80;;;;109030;1267;41142;-56
2022/10/25 03:06:17;;;;;;;;;;;;;12.30;97550.00;;;;109049;1268;41529;-55
2022/10/25 03:08:48;;;;;;;;;;;;;12.20;97545.00;;;;109062;1268;41193;-55
2022/10/25 03:11:18;;;;;;;;;;;;;12.20;97549.20;;;;109087;1268;41588;-55
2022/10/25 03:13:49;;;;;;;;;;;;;12.10;97549.40;;;;109002;1268;41137;-55
2022/10/25 03:16:18;;;;;;;;;;;;;12.10;97545.20;;;;109092;1268;41932;-55
2022/10/25 03:18:48;;;;;;;;;;;;;12.10;97542.00;;;;109078;1268;41148;-55
2022/10/25 03:21:18;;;;;;;;;;;;;12.00;97542.20;;;;109040;1267;42026;-55
2022/10/25 03:23:47;;;;;;;;;;;;;12.00;97544.80;;;;108996;1267;41604;-55
2022/10/25 03:26:18;;;;;;;;;;;;;12.00;97548.20;;;;108992;1266;41284;-55
2022/10/25 03:28:48;;;;;;;;;;;;;11.96;97546.40;;;;109110;1268;41494;-55
2022/10/25 03:31:19;;;;;;;;;;;;;11.98;97541.40;;;;108997;1268;41148;-55
2022/10/25 03:33:50;;;;;;;;;;;;;11.90;97534.00;;;;109029;1268;41244;-56
2022/10/25 03:36:19;;;;;;;;;;;;;11.90;97537.00;;;;109010;1268;41367;-56
2022/10/25 03:38:49;;;;;;;;;;;;;11.90;97533.80;;;;109033;1266;41147;-56
2022/10/25 03:41:19;;;;;;;;;;;;;11.90;97533.20;;;;108975;1269;41383;-55
2022/10/25 03:43:49;;;;;;;;;;;;;11.90;97530.40;;;;108913;1269;42007;-55
2022/10/25 03:46:18;;;;;;;;;;;;;11.90;97529.60;;;;108735;1269;41250;-57
2022/10/25 03:48:47;;;;;;;;;;;;;11.86;97530.80;;;;108994;1268;41162;-55
2022/10/25 03:51:16;;;;;;;;;;;;;11.84;97524.40;;;;109107;1256;41200;-56
2022/10/25 03:53:46;;;;;;;;;;;;;11.90;97520.40;;;;108999;1266;41450;-55
2022/10/25 03:56:16;;;;;;;;;;;;;11.90;97519.60;;;;108916;1269;41173;-55
2022/10/25 03:58:44;;;;;;;;;;;;;11.90;97522.20;;;;108992;1265;41244;-55
2022/10/25 04:01:13;;;;;;;;;;;;;11.90;97523.80;;;;108823;1269;42400;-55
2022/10/25 04:03:44;;;;;;;;;;;;;11.90;97522.00;;;;108961;1269;42425;-55
2022/10/25 04:06:13;;;;;;;;;;;;;11.90;97521.00;;;;108909;1269;41687;-56
2022/10/25 04:08:41;;;;;;;;;;;;;11.90;97516.60;;;;108934;1271;41613;-56
2022/10/25 04:11:10;;;;;;;;;;;;;11.90;97519.60;;;;108982;1266;41137;-55
2022/10/25 04:13:40;;;;;;;;;;;;;11.90;97513.20;;;;108937;1266;41617;-55
2022/10/25 04:16:09;;;;;;;;;;;;;11.90;97510.40;;;;108951;1269;41175;-56
2022/10/25 04:18:39;;;;;;;;;;;;;11.90;97513.40;;;;108942;1269;41593;-55
2022/10/25 04:21:08;;;;;;;;;;;;;11.90;97510.00;;;;108874;1269;41232;-55
2022/10/25 04:23:37;;;;;;;;;;;;;11.90;97511.20;;;;108846;1267;41174;-55
2022/10/25 04:26:07;;;;;;;;;;;;;11.90;97511.00;;;;108763;1269;41606;-55
2022/10/25 04:28:35;;;;;;;;;;;;;11.84;97502.40;;;;108734;1270;41247;-55
2022/10/25 04:31:04;;;;;;;;;;;;;11.80;97504.80;;;;108704;1269;41268;-55
2022/10/25 04:33:33;;;;;;;;;;;;;11.80;97502.40;;;;108744;1269;42735;-55
2022/10/25 04:36:03;;;;;;;;;;;;;11.80;97503.80;;;;108918;1264;41168;-55
2022/10/25 04:38:31;;;;;;;;;;;;;11.70;97497.20;;;;108861;1269;41167;-55
2022/10/25 04:41:00;;;;;;;;;;;;;11.70;97495.60;;;;108868;1269;41693;-55
2022/10/25 04:43:29;;;;;;;;;;;;;11.70;97494.00;;;;108694;1268;41146;-55
2022/10/25 04:46:00;;;;;;;;;;;;;11.70;97495.40;;;;108689;1270;41147;-55
2022/10/25 04:48:28;;;;;;;;;;;;;11.62;97495.00;;;;108652;1269;41155;-55
2022/10/25 04:51:00;;;;;;;;;;;;;11.60;97499.40;;;;108709;1269;41631;-55
2022/10/25 04:53:30;;;;;;;;;;;;;11.60;97496.80;;;;108739;1270;41315;-54
2022/10/25 04:56:06;;;;;;;;;;;;;11.60;97494.40;;;;109019;1269;41135;-55
2022/10/25 04:58:34;;;;;;;;;;;;;11.60;97490.20;;;;109002;1269;41232;-55
2022/10/25 05:01:07;;;;;;;;;;;;;11.60;97488.20;;;;109026;1269;41151;-56
2022/10/25 05:03:36;;;;;;;;;;;;;11.50;97482.20;;;;109027;1269;41151;-55
2022/10/25 05:06:07;;;;;;;;;;;;;11.50;97485.80;;;;109013;1269;41638;-55
2022/10/25 05:08:36;;;;;;;;;;;;;11.50;97488.40;;;;108933;1269;41159;-55
2022/10/25 05:11:04;;;;;;;;;;;;;11.60;97491.80;;;;108907;1270;41333;-55
2022/10/25 05:13:34;;;;;;;;;;;;;11.60;97493.00;;;;108880;1270;41227;-55
2022/10/25 05:16:03;;;;;;;;;;;;;11.60;97489.00;;;;108949;1269;41921;-55
2022/10/25 05:18:31;;;;;;;;;;;;;11.60;97491.40;;;;108957;1266;41622;-55
2022/10/25 05:21:03;;;;;;;;;;;;;11.70;97485.80;;;;108912;1269;42603;-55
2022/10/25 05:23:32;;;;;;;;;;;;;11.70;97483.80;;;;108772;1269;42389;-55
2022/10/25 05:26:04;;;;;;;;;;;;;11.70;97483.60;;;;108937;1270;41164;-55
2022/10/25 05:28:36;;;;;;;;;;;;;11.72;97480.20;;;;108983;1270;41922;-55
2022/10/25 05:31:08;;;;;;;;;;;;;11.80;97467.80;;;;108834;1269;41238;-57
2022/10/25 05:33:45;;;;;;;;;;;;;11.80;97477.40;;;;108833;1270;41242;-57
2022/10/25 05:36:14;;;;;;;;;;;;;11.82;97473.80;;;;108841;1270;42445;-57
2022/10/25 05:38:42;;;;;;;;;;;;;11.90;97472.00;;;;108846;1270;41150;-55
2022/10/25 05:41:12;;;;;;;;;;;;;11.90;97472.00;;;;108725;1270;41605;-56
2022/10/25 05:43:41;;;;;;;;;;;;;11.90;97476.00;;;;108649;1266;42123;-56
2022/10/25 05:46:14;;;;;;;;;;;;;12.00;97482.00;;;;108667;1269;41184;-56
2022/10/25 05:48:42;;;;;;;;;;;;;12.00;97483.80;;;;108880;1269;41149;-57
2022/10/25 05:51:16;;;;;;;;;;;;;12.10;97491.80;;;;108869;1270;41143;-56
2022/10/25 05:54:01;;;;;;;;;;;;;12.10;97491.60;;;;108845;1269;41179;-56
2022/10/25 05:56:30;;;;;;;;;;;;;12.10;97489.20;;;;108986;1265;41603;-56
2022/10/25 05:59:09;;;;;;;;;;;;;12.20;97489.20;;;;108828;1270;41265;-56
2022/10/25 06:01:38;;;;;;;;;;;;;12.20;97503.60;;;;108942;1268;41148;-56
2022/10/25 06:04:08;;;;;;;;;;;;;12.20;97505.00;;;;108874;1271;41644;-56
2022/10/25 06:06:37;;;;;;;;;;;;;12.20;97505.60;;;;108927;1270;41161;-56
2022/10/25 06:09:06;;;;;;;;;;;;;12.30;97505.40;;;;108863;1266;41728;-56
2022/10/25 06:11:34;;;;;;;;;;;;;12.30;97501.40;;;;108991;1270;41623;-56
2022/10/25 06:14:03;;;;;;;;;;;;;12.40;97505.20;;;;108930;1266;41138;-56
2022/10/25 06:16:32;;;;;;;;;;;;;12.40;97500.00;;;;108933;1270;41618;-56
2022/10/25 06:19:00;;;;;;;;;;;;;12.46;97496.00;;;;108976;1270;41292;-55
2022/10/25 06:21:29;;;;;;;;;;;;;12.50;97488.60;;;;108922;1270;41237;-56
2022/10/25 06:23:58;;;;;;;;;;;;;12.54;97486.60;;;;108920;1270;42404;-56
2022/10/25 06:26:27;;;;;;;;;;;;;12.60;97495.00;;;;108961;1271;43021;-56
2022/10/25 06:28:56;;;;;;;;;;;;;12.70;97494.40;;;;108944;1266;41177;-56
2022/10/25 06:31:25;;;;;;;;;;;;;12.70;97489.20;;;;108928;1271;41710;-56
2022/10/25 06:33:54;;;;;;;;;;;;;12.80;97485.40;;;;108864;1271;41137;-56
2022/10/25 06:36:23;;;;;;;;;;;;;12.90;97487.40;;;;108826;1270;41174;-56
2022/10/25 06:38:51;;;;;;;;;;;;;12.90;97491.20;;;;108773;1270;41270;-57
2022/10/25 06:41:23;;;;;;;;;;;;;12.98;97480.40;;;;108969;1270;41393;-56
2022/10/25 06:43:52;;;;;;;;;;;;;13.00;97471.80;;;;108969;1271;41173;-56
2022/10/25 06:46:34;;;;;;;;;;;;;13.10;97472.00;;;;108927;1269;41448;-56
2022/10/25 06:49:19;;;;;;;;;;;;;13.24;97465.60;;;;108924;1270;41600;-56
2022/10/25 06:51:47;;;;;;;;;;;;;13.40;97471.80;;;;108735;1271;41149;-56
2022/10/25 06:54:16;;;;;;;;;;;;;13.50;97474.20;;;;108742;1270;41681;-56
2022/10/25 06:56:44;;;;;;;;;;;;;13.70;97464.40;;;;108915;1268;41155;-56
2022/10/25 06:59:13;;;;;;;;;;;;;13.80;97466.60;;;;109001;1265;41171;-56
2022/10/25 07:01:41;;;;;;;;;;;;;13.90;97468.40;;;;109021;1268;41153;-56
2022/10/25 07:04:10;;;;;;;;;;;;;13.82;97469.60;;;;108871;1271;41220;-56
2022/10/25 07:06:38;;;;;;;;;;;;;13.70;97478.80;;;;108888;1262;41608;-56
2022/10/25 07:09:09;;;;;;;;;;;;;13.50;97482.20;;;;108711;1271;41138;-57
2022/10/25 07:11:37;;;;;;;;;;;;;13.40;97486.80;;;;108728;1271;41257;-57
2022/10/25 07:14:07;;;;;;;;;;;;;13.40;97486.60;;;;108607;1271;41176;-57
2022/10/25 07:16:35;;;;;;;;;;;;;13.40;97480.60;;;;108778;1271;41183;-56
2022/10/25 07:19:04;;;;;;;;;;;;;13.46;97485.80;;;;108903;1271;41161;-56
2022/10/25 07:21:33;;;;;;;;;;;;;13.54;97473.40;;;;108953;1270;41470;-56
2022/10/25 07:24:01;;;;;;;;;;;;;13.68;97468.60;;;;108979;1271;41497;-55
2022/10/25 07:26:31;;;;;;;;;;;;;13.76;97463.80;;;;108689;1265;338144;-55
2022/10/25 07:29:00;;;;;;;;;;;;;13.80;97465.40;;;;109005;1271;41701;-56
2022/10/25 07:31:29;;;;;;;;;;;;;13.90;97471.00;;;;108934;1271;41134;-56
2022/10/25 07:33:58;;;;;;;;;;;;;14.00;97479.60;;;;108998;1270;41140;-56
2022/10/25 07:36:27;;;;;;;;;;;;;14.00;97470.00;;;;108961;1269;41164;-56
2022/10/25 07:38:56;;;;;;;;;;;;;14.08;97470.60;;;;108948;1271;41274;-57
2022/10/25 07:41:24;;;;;;;;;;;;;14.10;97471.60;;;;108939;1271;41140;-57
2022/10/25 07:43:54;;;;;;;;;;;;;14.10;97462.80;;;;108922;1266;42172;-57
2022/10/25 07:46:22;;;;;;;;;;;;;14.20;97458.60;;;;108979;1271;41597;-57
2022/10/25 07:48:51;;;;;;;;;;;;;14.20;97463.80;;;;108970;1270;41158;-56
2022/10/25 07:51:20;;;;;;;;;;;;;14.30;97466.00;;;;108926;1271;41162;-57
2022/10/25 07:53:48;;;;;;;;;;;;;14.30;97465.20;;;;108904;1265;41893;-55
2022/10/25 07:56:17;;;;;;;;;;;;;14.36;97468.60;;;;108936;1271;41227;-56
2022/10/25 07:58:49;;;;;;;;;;;;;14.40;97465.20;;;;108917;1270;41739;-56
2022/10/25 08:01:19;;;;;;;;;;;;;14.40;97476.00;;;;108942;1271;41733;-56
2022/10/25 08:03:49;;;;;;;;;;;;;14.42;97472.00;;;;108882;1266;42542;-56
2022/10/25 08:06:17;;;;;;;;;;;;;14.50;97476.00;;;;108870;1266;42400;-56
2022/10/25 08:08:46;;;;;;;;;;;;;14.50;97475.20;;;;108967;1265;41534;-55
2022/10/25 08:11:15;;;;;;;;;;;;;14.50;97473.60;;;;108980;1271;41223;-56
2022/10/25 08:13:43;;;;;;;;;;;;;14.40;97474.40;;;;108959;1266;41143;-55
2022/10/25 08:16:11;;;;;;;;;;;;;14.40;97469.60;;;;108938;1270;41172;-55
2022/10/25 08:18:41;;;;;;;;;;;;;14.40;97471.60;;;;108873;1270;41767;-56
2022/10/25 08:21:09;;;;;;;;;;;;;14.30;97467.20;;;;108916;1271;42178;-55
2022/10/25 08:23:38;;;;;;;;;;;;;14.30;97467.60;;;;108874;1268;41695;-55
2022/10/25 08:26:06;;;;;;;;;;;;;14.30;97464.40;;;;108914;1271;41145;-55
2022/10/25 08:28:35;;;;;;;;;;;;;14.30;97468.00;;;;108718;1270;41630;-55
2022/10/25 08:31:03;;;;;;;;;;;;;14.38;97466.80;;;;108705;1271;41167;-55
2022/10/25 08:33:32;;;;;;;;;;;;;14.40;97467.80;;;;108757;1271;42366;-56
2022/10/25 08:36:01;;;;;;;;;;;;;14.40;97468.60;;;;108849;1271;41152;-56
2022/10/25 08:38:29;;;;;;;;;;;;;14.40;97472.00;;;;108979;1270;41262;-56
2022/10/25 08:41:08;;;;;;;;;;;;;14.40;97475.00;;;;108913;1270;41491;-55
2022/10/25 08:43:37;;;;;;;;;;;;;14.50;97476.80;;;;108924;1270;41615;-56
2022/10/25 08:46:09;;;;;;;;;;;;;14.50;97470.80;;;;108883;1271;41262;-56
2022/10/25 08:48:45;;;;;;;;;;;;;14.50;97466.20;;;;108909;1266;41607;-55
2022/10/25 08:51:34;;;;;;;;;;;;;14.60;97466.20;;;;108920;1266;41340;-56
2022/10/25 08:54:32;;;;;;;;;;;;;14.60;97470.40;;;;108827;1270;41850;-56
2022/10/25 08:57:13;;;;;;;;;;;;;14.70;97472.20;;;;108725;1271;41184;-56
2022/10/25 08:59:45;;;;;;;;;;;;;14.70;97471.20;;;;108918;1269;41155;-56
2022/10/25 09:02:21;;;;;;;;;;;;;14.78;97467.60;;;;108931;1270;41766;-55
2022/10/25 09:04:50;;;;;;;;;;;;;14.80;97469.20;;;;108876;1266;42538;-55
2022/10/25 09:07:26;;;;;;;;;;;;;14.90;97465.20;;;;108811;1271;41524;-56
2022/10/25 09:10:01;;;;;;;;;;;;;14.98;97469.00;;;;108745;1271;41177;-56
2022/10/25 09:12:30;;;;;;;;;;;;;15.00;97467.40;;;;108950;1270;41134;-55
2022/10/25 09:15:05;;;;;;;;;;;;;15.10;97466.00;;;;108826;1271;41294;-55
2022/10/25 09:17:42;;;;;;;;;;;;;15.20;97464.60;;;;108732;1271;42258;-55
2022/10/25 09:20:18;;;;;;;;;;;;;15.30;97458.40;;;;108783;1270;41191;-55
2022/10/25 09:22:47;;;;;;;;;;;;;15.40;97463.20;;;;108952;1263;41250;-56
2022/10/25 09:25:30;;;;;;;;;;;;;15.50;97459.00;;;;108824;1271;41153;-56
2022/10/25 09:28:00;;;;;;;;;;;;;15.60;97461.80;;;;108867;1271;42191;-56
2022/10/25 09:30:37;;;;;;;;;;;;;15.70;97459.60;;;;108835;1271;41144;-54
2022/10/25 09:33:09;;;;;;;;;;;;;15.90;97467.00;;;;108754;1271;41147;-54
2022/10/25 09:35:41;;;;;;;;;;;;;16.00;97466.80;;;;108747;1271;41148;-54
2022/10/25 09:38:20;;;;;;;;;;;;;16.10;97464.00;;;;108754;1271;41141;-56
2022/10/25 09:40:59;;;;;;;;;;;;;16.20;97463.00;;;;108793;1270;41230;-56
2022/10/25 09:43:31;;;;;;;;;;;;;16.40;97460.20;;;;108874;1270;42146;-56
2022/10/25 09:46:00;;;;;;;;;;;;;16.62;97463.80;;;;108908;1271;42517;-56
2022/10/25 09:48:36;;;;;;;;;;;;;16.90;97468.60;;;;108933;1271;41245;-56
2022/10/25 09:51:18;;;;;;;;;;;;;17.20;97465.00;;;;108859;1270;41154;-56
2022/10/25 09:53:46;;;;;;;;;;;;;17.40;97465.40;;;;108921;1271;41142;-56
2022/10/25 09:56:16;;;;;;;;;;;;;17.50;97470.20;;;;108904;1270;42419;-56
2022/10/25 09:58:47;;;;;;;;;;;;;17.50;97471.40;;;;108898;1270;41230;-56
2022/10/25 10:01:17;;;;;;;;;;;;;17.40;97468.40;;;;108847;1266;41997;-56
2022/10/25 10:03:45;;;;;;;;;;;;;17.40;97470.00;;;;108762;1270;41235;-56
2022/10/25 10:06:31;;;;;;;;;;;;;17.30;97469.80;;;;108737;1270;41159;-56
2022/10/25 10:09:04;;;;;;;;;;;;;17.30;97467.20;;;;108776;1271;41758;-56
2022/10/25 10:11:34;;;;;;;;;;;;;17.26;97467.40;;;;108970;1271;41146;-56
2022/10/25 10:14:19;;;;;;;;;;;;;17.20;97464.80;;;;108916;1271;41141;-55
2022/10/25 10:16:49;;;;;;;;;;;;;17.14;97462.60;;;;108958;1271;41616;-55
2022/10/25 10:19:18;;;;;;;;;;;;;17.10;97472.00;;;;108988;1271;42169;-55
2022/10/25 10:21:51;;;;;;;;;;;;;17.00;97478.00;;;;108993;1270;41199;-55
2022/10/25 10:24:32;;;;;;;;;;;;;17.00;97469.20;;;;109012;1271;41228;-55
2022/10/25 10:27:02;;;;;;;;;;;;;16.90;97472.80;;;;108951;1271;41140;-55
2022/10/25 10:29:30;;;;;;;;;;;;;16.84;97474.20;;;;108947;1270;41656;-56
2022/10/25 10:31:59;;;;;;;;;;;;;16.80;97475.40;;;;108928;1270;41612;-55
2022/10/25 10:34:29;;;;;;;;;;;;;16.80;97469.20;;;;108980;1271;42222;-56
2022/10/25 10:37:23;;;;;;;;;;;;;16.80;97469.40;;;;108935;1271;41139;-55
2022/10/25 10:39:56;;;;;;;;;;;;;16.80;97470.80;;;;108803;1271;41790;-55
2022/10/25 10:42:34;;;;;;;;;;;;;16.70;97472.00;;;;108782;1271;41150;-55
2022/10/25 10:45:12;;;;;;;;;;;;;16.70;97473.40;;;;108898;1271;41149;-56
2022/10/25 10:47:41;;;;;;;;;;;;;16.70;97478.80;;;;108933;1266;41238;-57
2022/10/25 10:50:11;;;;;;;;;;;;;16.70;97477.60;;;;108954;1271;41511;-56
2022/10/25 10:52:41;;;;;;;;;;;;;16.70;97475.40;;;;108988;1271;41241;-55
2022/10/25 10:55:36;;;;;;;;;;;;;16.70;97472.00;;;;109007;1269;41236;-55
2022/10/25 10:58:18;;;;;;;;;;;;;16.70;97464.40;;;;108896;1271;41152;-56
2022/10/25 11:00:47;;;;;;;;;;;;;16.70;97462.20;;;;108829;1270;41168;-56
2022/10/25 11:03:35;;;;;;;;;;;;;16.70;97467.40;;;;108978;1270;41204;-56
2022/10/25 11:06:22;;;;;;;;;;;;;16.76;97468.80;;;;108925;1271;41928;-57
2022/10/25 11:09:03;;;;;;;;;;;;;16.80;97459.80;;;;108892;1271;41229;-55
2022/10/25 11:11:31;;;;;;;;;;;;;16.90;97464.00;;;;108862;1271;42068;-55
2022/10/25 11:14:00;;;;;;;;;;;;;17.00;97461.40;;;;108882;1271;41137;-55
2022/10/25 11:16:47;;;;;;;;;;;;;17.10;97449.80;;;;108765;1270;41162;-55
2022/10/25 11:19:27;;;;;;;;;;;;;17.30;97446.00;;;;108751;1271;41478;-55
2022/10/25 11:22:02;;;;;;;;;;;;;17.64;97444.80;;;;108790;1266;41250;-55
2022/10/25 11:24:36;;;;;;;;;;;;;18.10;97439.80;;;;108746;1271;41617;-55
2022/10/25 11:27:08;;;;;;;;;;;;;18.82;97435.20;;;;108869;1267;42665;-55
2022/10/25 11:29:42;;;;;;;;;;;;;19.38;97442.00;;;;108915;1271;41302;-55
2022/10/25 11:32:29;;;;;;;;;;;;;19.64;97447.80;;;;108953;1270;41476;-55
2022/10/25 11:35:16;;;;;;;;;;;;;19.70;97441.60;;;;108927;1271;41140;-55
2022/10/25 11:37:50;;;;;;;;;;;;;19.70;97447.00;;;;108880;1270;42553;-56
2022/10/25 11:40:22;;;;;;;;;;;;;19.60;97450.40;;;;108966;1270;41144;-56
2022/10/25 11:42:50;;;;;;;;;;;;;19.50;97449.60;;;;108988;1271;41614;-56
2022/10/25 11:45:39;;;;;;;;;;;;;19.40;97453.20;;;;108919;1269;41173;-55
2022/10/25 11:48:14;;;;;;;;;;;;;19.30;97452.00;;;;108996;1271;41702;-56
2022/10/25 11:50:49;;;;;;;;;;;;;19.20;97449.60;;;;108943;1270;41711;-56
2022/10/25 11:53:17;;;;;;;;;;;;;19.20;97450.60;;;;108899;1271;41336;-56
2022/10/25 11:55:47;;;;;;;;;;;;;19.10;97454.20;;;;108880;1270;41172;-56
2022/10/25 11:58:20;;;;;;;;;;;;;19.00;97458.60;;;;108905;1269;41814;-56
2022/10/25 12:01:01;;;;;;;;;;;;;18.90;97461.60;;;;108771;1271;41183;-56
2022/10/25 12:03:48;;;;;;;;;;;;;18.80;97465.20;;;;108622;1271;42756;-56
2022/10/25 12:06:27;;;;;;;;;;;;;18.70;97471.40;;;;108927;1270;41621;-56
2022/10/25 12:09:01;;;;;;;;;;;;;18.60;97471.20;;;;109000;1266;42415;-56
2022/10/25 12:11:31;;;;;;;;;;;;;18.50;97474.40;;;;108886;1271;41489;-55
2022/10/25 12:14:00;;;;;;;;;;;;;18.40;97481.40;;;;108941;1271;42385;-56
2022/10/25 12:16:28;;;;;;;;;;;;;18.30;97482.20;;;;108939;1271;42844;-56
2022/10/25 12:19:00;;;;;;;;;;;;;18.10;97482.00;;;;108817;1270;41925;-56
2022/10/25 12:21:42;;;;;;;;;;;;;18.00;97489.00;;;;108917;1271;41149;-55
2022/10/25 12:24:14;;;;;;;;;;;;;17.90;97497.40;;;;108937;1271;41231;-55
2022/10/25 12:26:43;;;;;;;;;;;;;17.80;97505.20;;;;108866;1270;41612;-55
2022/10/25 12:29:21;;;;;;;;;;;;;17.70;97502.80;;;;108900;1270;41159;-55
2022/10/25 12:31:53;;;;;;;;;;;;;17.66;97500.60;;;;108961;1270;41234;-56
2022/10/25 12:34:41;;;;;;;;;;;;;17.56;97504.20;;;;108873;1271;41296;-55
2022/10/25 12:37:28;;;;;;;;;;;;;17.40;97505.20;;;;108893;1271;41244;-55
2022/10/25 12:39:57;;;;;;;;;;;;;17.30;97502.60;;;;108919;1271;41985;-56
2022/10/25 12:42:29;;;;;;;;;;;;;17.20;97504.60;;;;108848;1271;41155;-56
2022/10/25 12:45:16;;;;;;;;;;;;;17.20;97506.40;;;;108990;1270;41233;-56
2022/10/25 12:48:00;;;;;;;;;;;;;17.10;97508.00;;;;108959;1271;41619;-55
2022/10/25 12:50:57;;;;;;;;;;;;;17.10;97511.40;;;;108870;1271;42294;-55
2022/10/25 12:53:49;;;;;;;;;;;;;17.10;97513.40;;;;108481;1271;41248;-55
2022/10/25 12:56:29;;;;;;;;;;;;;17.00;97513.40;;;;108777;1271;41157;-55
2022/10/25 12:59:21;;;;;;;;;;;;;17.04;97518.40;;;;108873;1271;41168;-55
2022/10/25 13:02:07;;;;;;;;;;;;;17.00;97525.60;;;;108696;1271;41178;-56
2022/10/25 13:04:42;;;;;;;;;;;;;16.92;97529.20;;;;108931;1271;41805;-56
2022/10/25 13:07:10;;;;;;;;;;;;;16.72;97534.40;;;;108895;1271;41685;-55
2022/10/25 13:09:38;;;;;;;;;;;;;16.60;97538.00;;;;108847;1268;42091;-55
2022/10/25 13:12:29;;;;;;;;;;;;;16.50;97537.00;;;;108935;1271;41329;-55
2022/10/25 13:14:57;;;;;;;;;;;;;16.50;97537.80;;;;108955;1271;41875;-55
2022/10/25 13:17:26;;;;;;;;;;;;;16.48;97540.40;;;;108942;1271;41143;-56
2022/10/25 13:20:14;;;;;;;;;;;;;16.40;97539.60;;;;108936;1271;41148;-55
2022/10/25 13:22:43;;;;;;;;;;;;;16.30;97540.00;;;;108895;1269;42526;-55
2022/10/25 13:25:11;;;;;;;;;;;;;16.30;97534.20;;;;108950;1270;41180;-56
2022/10/25 13:27:59;;;;;;;;;;;;;16.20;97545.00;;;;108955;1270;41723;-55
2022/10/25 13:30:28;;;;;;;;;;;;;16.20;97543.20;;;;108930;1271;42003;-56
2022/10/25 13:33:17;;;;;;;;;;;;;16.20;97539.60;;;;108997;1267;41237;-55
2022/10/25 13:35:49;;;;;;;;;;;;;16.08;97541.80;;;;108969;1271;41232;-55
2022/10/25 13:38:22;;;;;;;;;;;;;16.10;97539.00;;;;108951;1271;41608;-57
2022/10/25 13:41:08;;;;;;;;;;;;;16.10;97541.20;;;;108950;1271;41153;-55
2022/10/25 13:43:52;;;;;;;;;;;;;16.20;97545.20;;;;108638;1271;41625;-55
2022/10/25 13:46:23;;;;;;;;;;;;;16.20;97548.00;;;;108957;1271;41504;-55
2022/10/25 13:48:53;;;;;;;;;;;;;16.10;97555.20;;;;109081;1271;41575;-55
2022/10/25 13:51:22;;;;;;;;;;;;;16.10;97559.40;;;;108996;1272;41232;-56
2022/10/25 13:53:50;;;;;;;;;;;;;16.10;97560.40;;;;108939;1271;42181;-55
2022/10/25 13:56:21;;;;;;;;;;;;;16.18;97568.60;;;;109053;1268;42105;-56
2022/10/25 13:58:51;;;;;;;;;;;;;16.20;97572.40;;;;109047;1268;41233;-55
2022/10/25 14:01:21;;;;;;;;;;;;;16.20;97573.40;;;;109029;1265;41167;-55